Time;durP1;ratioP1;P1;durP2;ratioP2;P2;SDS_P1;SDS_P2;PMS_P1;PMS_P2;Temp;Humidity;BMP_temperature;BMP_pressure;BME280_temperature;BME280_humidity;BME280_pressure;Samples;Min_cycle;Max_cycle;Signal;HPM_P1;HPM_P2
2021/01/29 00:01:18;;;;;;;31.60;5.90;;;9.60;99.90;;;;;;5011943;28;20088;-81
2021/01/29 00:03:43;;;;;;;36.83;6.07;;;9.60;99.90;;;;;;5028361;28;20468;-84
2021/01/29 00:06:09;;;;;;;34.35;5.43;;;9.70;99.90;;;;;;5011922;28;20124;-81
2021/01/29 00:08:36;;;;;;;37.28;6.22;;;9.70;99.90;;;;;;5011694;28;20025;-81
2021/01/29 00:11:02;;;;;;;34.58;6.65;;;9.70;99.90;;;;;;5029575;28;20021;-82
2021/01/29 00:13:28;;;;;;;41.10;6.68;;;9.70;99.90;;;;;;5028265;28;20029;-84
2021/01/29 00:15:54;;;;;;;31.77;6.18;;;9.70;99.90;;;;;;5029496;28;20389;-83
2021/01/29 00:18:21;;;;;;;39.00;7.22;;;9.70;99.90;;;;;;5029368;28;20134;-81
2021/01/29 00:20:47;;;;;;;32.40;6.38;;;9.60;99.90;;;;;;5028017;28;20384;-81
2021/01/29 00:23:14;;;;;;;39.90;5.75;;;9.50;99.90;;;;;;5011483;28;20049;-83
2021/01/29 00:25:45;;;;;;;39.15;5.05;;;9.40;99.90;;;;;;5029174;28;20030;-81
2021/01/29 00:28:10;;;;;;;34.47;5.18;;;9.30;99.90;;;;;;5027853;28;20033;-83
2021/01/29 00:30:36;;;;;;;36.15;5.72;;;9.30;99.90;;;;;;5027870;28;20021;-83
2021/01/29 00:33:05;;;;;;;30.17;6.38;;;9.20;99.90;;;;;;5029156;28;20029;-82
2021/01/29 00:35:32;;;;;;;38.00;6.93;;;9.20;99.90;;;;;;5027702;28;20029;-82
2021/01/29 00:37:59;;;;;;;35.50;6.85;;;9.20;99.90;;;;;;5027753;28;20496;-83
2021/01/29 00:40:25;;;;;;;32.15;6.05;;;9.20;99.90;;;;;;5027356;28;20064;-80
2021/01/29 00:42:51;;;;;;;31.95;5.47;;;9.20;99.90;;;;;;5029055;28;20022;-83
2021/01/29 00:45:22;;;;;;;30.20;5.25;;;9.10;99.90;;;;;;5027235;28;20044;-82
2021/01/29 00:47:48;;;;;;;31.50;5.55;;;9.20;99.90;;;;;;5027463;28;20487;-83
2021/01/29 00:50:14;;;;;;;45.33;7.60;;;9.10;99.90;;;;;;5027399;28;20029;-82
2021/01/29 00:52:40;;;;;;;35.40;5.70;;;9.10;99.90;;;;;;5027576;28;20029;-81
2021/01/29 00:55:07;;;;;;;35.15;6.03;;;9.10;99.90;;;;;;5011395;28;20365;-82
2021/01/29 00:57:33;;;;;;;29.52;4.97;;;9.10;99.90;;;;;;5027296;28;20476;-81
2021/01/29 00:59:58;;;;;;;29.27;5.13;;;9.00;99.90;;;;;;5027130;28;20044;-81
2021/01/29 01:02:24;;;;;;;39.15;6.25;;;9.00;99.90;;;;;;4994384;28;20034;-82
2021/01/29 01:04:50;;;;;;;38.45;6.05;;;9.00;99.90;;;;;;5010664;28;20037;-81
2021/01/29 01:07:16;;;;;;;33.78;5.35;;;9.00;99.90;;;;;;5028496;28;20477;-84
2021/01/29 01:09:43;;;;;;;29.83;5.05;;;9.00;99.90;;;;;;5027308;28;20067;-82
2021/01/29 01:12:09;;;;;;;35.53;5.03;;;9.10;99.90;;;;;;5028207;28;20112;-82
2021/01/29 01:14:35;;;;;;;27.55;5.18;;;9.20;99.90;;;;;;5027922;28;20112;-82
2021/01/29 01:17:00;;;;;;;23.42;5.85;;;9.20;99.90;;;;;;5028309;28;20034;-84
2021/01/29 01:19:26;;;;;;;31.67;5.63;;;9.20;99.90;;;;;;5026925;28;20064;-83
2021/01/29 01:21:52;;;;;;;36.33;5.78;;;9.20;99.90;;;;;;5026720;28;20568;-85
2021/01/29 01:24:18;;;;;;;38.85;6.05;;;9.20;99.90;;;;;;5027171;28;20064;-84
2021/01/29 01:26:43;;;;;;;39.38;6.03;;;9.30;99.90;;;;;;5027049;28;20380;-81
2021/01/29 01:29:09;;;;;;;26.77;5.43;;;9.30;99.90;;;;;;5010420;28;20104;-82
2021/01/29 01:31:35;;;;;;;30.75;4.63;;;9.30;99.90;;;;;;5010414;28;20030;-84
2021/01/29 01:34:00;;;;;;;22.30;4.93;;;9.40;99.90;;;;;;5027994;28;20037;-80
2021/01/29 01:36:26;;;;;;;27.80;4.43;;;9.50;99.90;;;;;;5010421;28;20496;-81
2021/01/29 01:38:52;;;;;;;26.13;4.70;;;9.50;99.90;;;;;;5027917;28;20136;-81
2021/01/29 01:41:18;;;;;;;27.45;4.78;;;9.50;99.90;;;;;;5026837;28;20026;-83
2021/01/29 01:43:44;;;;;;;29.92;4.78;;;9.50;99.90;;;;;;5026835;28;20017;-83
2021/01/29 01:46:13;;;;;;;30.23;4.43;;;9.40;99.90;;;;;;5026632;28;20022;-82
2021/01/29 01:49:01;;;;;;;30.30;5.13;;;9.30;99.90;;;;;;5028186;28;20017;-84
2021/01/29 01:51:30;;;;;;;40.97;6.63;;;9.30;99.90;;;;;;5028163;28;20053;-79
2021/01/29 01:53:58;;;;;;;26.25;6.63;;;9.20;99.90;;;;;;5028107;28;20037;-82
2021/01/29 01:56:44;;;;;;;31.77;5.20;;;9.20;99.90;;;;;;5029172;28;20029;-82
2021/01/29 01:59:15;;;;;;;25.17;5.30;;;9.10;99.90;;;;;;5031964;28;20068;-84
2021/01/29 02:01:43;;;;;;;35.25;5.05;;;9.00;99.90;;;;;;5032015;28;20021;-83
2021/01/29 02:04:09;;;;;;;31.55;5.13;;;9.00;99.90;;;;;;5013995;28;20384;-82
2021/01/29 02:06:51;;;;;;;33.55;4.65;;;8.90;99.90;;;;;;5014306;28;20022;-83
2021/01/29 02:09:20;;;;;;;27.95;5.32;;;8.90;99.90;;;;;;5031886;28;20533;-82
2021/01/29 02:11:45;;;;;;;26.38;5.93;;;8.80;99.90;;;;;;5030454;28;20143;-84
2021/01/29 02:14:11;;;;;;;34.85;5.43;;;8.80;99.90;;;;;;5030507;28;20072;-84
2021/01/29 02:17:01;;;;;;;30.58;5.30;;;8.70;99.90;;;;;;5014065;28;20452;-82
2021/01/29 02:20:02;;;;;;;35.10;5.78;;;8.70;99.90;;;;;;5031514;28;20029;-80
2021/01/29 02:22:27;;;;;;;25.88;4.70;;;8.60;99.90;;;;;;5019369;28;20048;-83
2021/01/29 02:25:22;;;;;;;25.48;4.45;;;8.60;99.90;;;;;;5031483;28;20084;-80
2021/01/29 02:27:52;;;;;;;29.63;5.10;;;8.50;99.90;;;;;;5031530;28;20021;-82
2021/01/29 02:30:36;;;;;;;28.70;5.20;;;8.50;99.90;;;;;;5030080;28;20025;-83
2021/01/29 02:33:33;;;;;;;35.92;7.10;;;8.40;99.90;;;;;;5030195;28;20107;-80
2021/01/29 02:36:34;;;;;;;29.90;5.45;;;8.40;99.90;;;;;;5029835;28;20030;-81
2021/01/29 02:39:27;;;;;;;27.73;5.55;;;8.40;99.90;;;;;;5007753;28;20053;-82
2021/01/29 02:42:27;;;;;;;35.78;7.50;;;8.30;99.90;;;;;;5030010;28;20037;-82
2021/01/29 02:44:57;;;;;;;29.83;4.70;;;8.30;99.90;;;;;;5007522;28;20094;-82
2021/01/29 02:47:30;;;;;;;28.38;4.82;;;8.30;99.90;;;;;;5030094;28;20116;-82
2021/01/29 02:50:18;;;;;;;30.92;4.82;;;8.30;99.90;;;;;;5029879;28;20120;-84
2021/01/29 02:52:57;;;;;;;17.00;3.55;;;8.30;99.90;;;;;;5031097;28;20064;-81
2021/01/29 02:55:35;;;;;;;30.92;5.78;;;8.30;99.90;;;;;;5029736;28;20220;-83
2021/01/29 02:58:14;;;;;;;24.47;4.33;;;8.30;99.90;;;;;;5031209;28;20072;-82
2021/01/29 03:00:48;;;;;;;33.10;5.88;;;8.30;99.90;;;;;;5029689;28;20026;-82
2021/01/29 03:03:15;;;;;;;32.33;6.00;;;8.40;99.90;;;;;;5029903;28;20029;-82
2021/01/29 03:05:48;;;;;;;31.15;4.93;;;8.40;99.90;;;;;;5029482;28;20056;-83
2021/01/29 03:08:18;;;;;;;22.08;4.88;;;8.40;99.90;;;;;;5029396;28;20040;-82
2021/01/29 03:10:52;;;;;;;35.25;5.00;;;8.50;99.90;;;;;;5029644;28;20036;-81
2021/01/29 03:13:36;;;;;;;30.60;4.45;;;8.60;99.90;;;;;;5029281;28;20477;-82
2021/01/29 03:16:11;;;;;;;36.28;5.25;;;8.60;99.90;;;;;;5030529;28;20053;-81
2021/01/29 03:18:49;;;;;;;26.98;4.13;;;8.70;99.90;;;;;;5029349;28;20026;-83
2021/01/29 03:21:20;;;;;;;23.40;3.85;;;8.90;99.90;;;;;;5028969;28;20526;-83
2021/01/29 03:23:51;;;;;;;19.60;4.38;;;8.90;99.90;;;;;;5030751;28;20064;-83
2021/01/29 03:26:31;;;;;;;19.23;4.25;;;9.00;99.90;;;;;;5030635;28;20419;-82
2021/01/29 03:29:08;;;;;;;19.80;3.75;;;9.10;99.90;;;;;;5029168;28;20417;-83
2021/01/29 03:31:36;;;;;;;21.13;4.85;;;9.10;99.90;;;;;;5030533;28;20033;-85
2021/01/29 03:34:10;;;;;;;26.33;4.82;;;9.20;99.90;;;;;;5029266;28;20029;-83
2021/01/29 03:36:43;;;;;;;25.77;4.15;;;9.20;99.90;;;;;;5030173;28;20072;-83
2021/01/29 03:39:25;;;;;;;25.08;3.92;;;9.20;99.90;;;;;;5030090;28;20064;-85
2021/01/29 03:42:01;;;;;;;19.33;3.58;;;9.20;99.90;;;;;;5028982;28;20069;-81
2021/01/29 03:45:01;;;;;;;23.67;4.80;;;9.20;99.90;;;;;;5028793;28;20022;-84
2021/01/29 03:47:41;;;;;;;30.23;5.03;;;9.20;99.90;;;;;;5028736;28;20112;-82
2021/01/29 03:50:36;;;;;;;20.92;3.67;;;9.30;99.90;;;;;;5028568;28;20028;-83
2021/01/29 03:53:07;;;;;;;34.38;5.68;;;9.30;99.90;;;;;;5013176;28;20400;-82
2021/01/29 03:55:47;;;;;;;27.10;3.70;;;9.30;99.90;;;;;;5030021;28;20044;-82
2021/01/29 03:58:31;;;;;;;20.48;3.80;;;9.30;99.90;;;;;;5029998;28;20100;-81
2021/01/29 04:01:10;;;;;;;25.85;3.90;;;9.30;99.90;;;;;;5028762;28;20337;-83
2021/01/29 04:03:48;;;;;;;24.88;5.32;;;9.30;99.90;;;;;;5028772;28;20029;-83
2021/01/29 04:06:24;;;;;;;29.60;4.88;;;9.30;99.90;;;;;;5029815;28;20140;-85
2021/01/29 04:09:02;;;;;;;26.42;4.80;;;9.20;99.90;;;;;;5029487;28;20095;-83
2021/01/29 04:11:45;;;;;;;23.73;4.45;;;9.20;99.90;;;;;;5029731;28;20041;-86
2021/01/29 04:14:16;;;;;;;17.67;3.78;;;9.20;99.90;;;;;;5028313;28;20040;-83
2021/01/29 04:16:45;;;;;;;25.58;4.70;;;9.10;99.90;;;;;;5028546;28;20526;-86
2021/01/29 04:19:20;;;;;;;25.60;4.17;;;9.10;99.90;;;;;;5027684;28;20353;-84
2021/01/29 04:21:58;;;;;;;15.55;3.72;;;9.10;99.90;;;;;;5029358;28;20041;-84
2021/01/29 04:24:35;;;;;;;22.80;3.90;;;9.10;99.90;;;;;;5029482;28;20091;-82
2021/01/29 04:27:15;;;;;;;24.23;4.10;;;9.10;99.90;;;;;;5028188;28;20071;-84
2021/01/29 04:29:42;;;;;;;;;;;9.10;99.90;;;;;;5028278;28;20099;-82
2021/01/29 04:32:14;;;;;;;27.65;3.80;;;9.10;99.90;;;;;;5029304;28;19912;-83
2021/01/29 04:34:45;;;;;;;29.63;4.07;;;9.10;99.90;;;;;;5027851;28;20056;-81
2021/01/29 04:37:16;;;;;;;19.88;3.95;;;9.10;99.90;;;;;;5029333;28;20022;-83
2021/01/29 04:39:46;;;;;;;18.00;3.65;;;9.00;99.90;;;;;;5027773;28;20032;-82
2021/01/29 04:42:55;;;;;;;28.85;4.28;;;9.00;99.90;;;;;;5027933;28;20465;-83
2021/01/29 04:45:41;;;;;;;31.75;4.63;;;8.90;99.90;;;;;;5029186;28;20083;-81
2021/01/29 04:48:10;;;;;;;21.90;3.47;;;9.00;99.90;;;;;;5027665;28;20029;-84
2021/01/29 04:50:51;;;;;;;33.95;4.35;;;9.10;99.90;;;;;;5027522;28;20392;-83
2021/01/29 04:53:58;;;;;;;21.67;3.25;;;9.10;99.90;;;;;;5027656;28;20183;-83
2021/01/29 04:56:54;;;;;;;30.63;4.97;;;9.10;99.90;;;;;;5028829;28;20123;-84
2021/01/29 04:59:47;;;;;;;26.00;3.70;;;9.20;99.90;;;;;;5028801;28;20100;-82
2021/01/29 05:03:09;;;;;;;15.95;4.70;;;9.10;99.90;;;;;;5028909;28;20435;-82
2021/01/29 05:06:04;;;;;;;27.50;4.75;;;9.10;99.90;;;;;;4990128;28;20026;-83
2021/01/29 05:08:45;;;;;;;19.08;3.53;;;9.00;99.90;;;;;;4990032;28;20022;-84
2021/01/29 05:11:22;;;;;;;21.58;3.78;;;9.10;99.90;;;;;;5023222;28;20468;-82
2021/01/29 05:14:24;;;;;;;22.75;4.97;;;9.00;99.90;;;;;;5027222;28;20022;-82
2021/01/29 05:17:17;;;;;;;23.70;3.67;;;9.00;99.90;;;;;;5027453;28;20025;-81
2021/01/29 05:20:02;;;;;;;22.42;4.35;;;9.00;99.90;;;;;;5028364;28;20018;-81
2021/01/29 05:22:45;;;;;;;20.35;4.28;;;9.00;99.90;;;;;;5026783;28;20087;-80
2021/01/29 05:25:32;;;;;;;27.30;4.47;;;9.10;99.90;;;;;;5027217;28;20380;-82
2021/01/29 05:28:35;;;;;;;29.85;4.20;;;9.10;99.90;;;;;;5028287;28;20043;-81
2021/01/29 05:31:10;;;;;;;20.92;3.75;;;9.00;99.90;;;;;;5026083;28;20109;-84
2021/01/29 05:33:54;;;;;;;26.30;5.03;;;8.90;99.90;;;;;;5026901;28;20431;-82
2021/01/29 05:36:38;;;;;;;18.95;3.97;;;8.90;99.90;;;;;;5026877;28;20460;-83
2021/01/29 05:39:48;;;;;;;21.65;3.13;;;8.90;99.90;;;;;;5028109;28;20472;-83
2021/01/29 05:42:44;;;;;;;27.30;4.40;;;9.00;99.90;;;;;;5025476;28;20041;-83
2021/01/29 05:45:27;;;;;;;26.15;4.40;;;9.00;99.90;;;;;;5027152;28;20025;-83
2021/01/29 05:48:05;;;;;;;16.40;2.97;;;9.00;99.90;;;;;;5026973;28;20030;-84
2021/01/29 05:50:54;;;;;;;25.38;4.10;;;9.00;99.90;;;;;;5026767;28;20033;-82
2021/01/29 05:53:57;;;;;;;21.88;3.75;;;9.10;99.90;;;;;;5026132;28;20040;-84
2021/01/29 05:56:44;;;;;;;21.92;4.53;;;9.10;99.90;;;;;;5026530;28;20515;-83
2021/01/29 05:59:34;;;;;;;24.27;4.18;;;9.10;99.90;;;;;;5026491;28;20031;-82
2021/01/29 06:02:11;;;;;;;;;;;9.20;99.90;;;;;;5026987;28;20029;-82
2021/01/29 06:04:46;;;;;;;23.63;3.75;;;9.20;99.90;;;;;;5026508;28;19913;-84
2021/01/29 06:07:29;;;;;;;18.08;3.88;;;9.20;99.90;;;;;;5027641;28;20109;-81
2021/01/29 06:10:16;;;;;;;29.75;4.57;;;9.10;99.90;;;;;;5026402;28;20476;-82
2021/01/29 06:12:54;;;;;;;17.70;4.10;;;9.10;99.90;;;;;;5026473;28;20396;-82
2021/01/29 06:15:38;;;;;;;26.92;4.68;;;9.10;99.90;;;;;;5026009;28;20044;-80
2021/01/29 06:18:25;;;;;;;26.58;4.88;;;9.00;99.90;;;;;;5026368;28;20021;-81
2021/01/29 06:21:25;;;;;;;24.45;5.47;;;9.10;99.90;;;;;;5026252;28;20071;-81
2021/01/29 06:23:54;;;;;;;;;;;9.00;99.90;;;;;;5026957;28;20025;-83
2021/01/29 06:26:27;;;;;;;22.58;6.38;;;9.10;99.90;;;;;;5027587;28;19944;-83
2021/01/29 06:29:11;;;;;;;23.92;4.45;;;9.10;99.90;;;;;;5026236;28;20040;-82
2021/01/29 06:31:58;;;;;;;27.20;5.95;;;9.20;99.90;;;;;;5026283;28;20105;-81
2021/01/29 06:35:01;;;;;;;19.00;4.75;;;9.10;99.90;;;;;;5026140;28;20051;-80
2021/01/29 06:37:39;;;;;;;15.48;3.80;;;9.00;99.90;;;;;;5026426;28;20417;-83
2021/01/29 06:40:23;;;;;;;16.80;3.42;;;9.00;99.90;;;;;;5026612;28;20028;-84
2021/01/29 06:43:13;;;;;;;20.15;3.10;;;9.00;99.90;;;;;;5027539;28;20382;-84
2021/01/29 06:45:49;;;;;;;13.60;3.00;;;9.00;99.90;;;;;;5031269;28;20079;-84
2021/01/29 06:48:26;;;;;;;9.23;2.15;;;9.00;99.90;;;;;;5029594;28;20028;-83
2021/01/29 06:51:19;;;;;;;7.28;2.25;;;9.00;99.90;;;;;;5030875;28;20365;-82
2021/01/29 06:54:11;;;;;;;15.48;2.50;;;9.00;99.90;;;;;;5029578;28;20124;-82
2021/01/29 06:57:18;;;;;;;11.57;2.95;;;8.90;99.90;;;;;;5031079;28;20029;-85
2021/01/29 06:59:59;;;;;;;14.93;3.20;;;8.90;99.90;;;;;;5013925;28;20496;-82
2021/01/29 07:03:03;;;;;;;9.50;2.03;;;9.00;99.90;;;;;;5029764;28;20504;-82
2021/01/29 07:06:00;;;;;;;6.95;1.80;;;9.00;99.90;;;;;;5029343;28;20120;-81
2021/01/29 07:08:47;;;;;;;6.85;1.67;;;9.00;99.90;;;;;;5029361;28;20029;-81
2021/01/29 07:11:50;;;;;;;5.15;1.30;;;9.10;99.90;;;;;;5030260;28;20108;-81
2021/01/29 07:15:06;;;;;;;7.78;1.33;;;9.10;99.90;;;;;;5029057;28;20034;-76
2021/01/29 07:17:38;;;;;;;6.55;1.27;;;9.00;99.90;;;;;;5012345;28;20091;-85
2021/01/29 07:20:28;;;;;;;6.38;1.50;;;9.00;99.90;;;;;;5029286;28;20476;-83
2021/01/29 07:23:17;;;;;;;7.45;1.20;;;9.00;99.90;;;;;;5030238;28;20116;-83
2021/01/29 07:26:02;;;;;;;5.28;1.30;;;9.00;99.90;;;;;;5030376;28;20464;-83
2021/01/29 07:28:52;;;;;;;6.45;1.13;;;9.00;99.90;;;;;;5028884;28;20434;-80
2021/01/29 07:31:40;;;;;;;7.43;1.08;;;9.00;99.90;;;;;;5030253;28;20026;-84
2021/01/29 07:34:22;;;;;;;14.30;2.30;;;9.00;99.90;;;;;;5030158;28;20108;-83
2021/01/29 07:37:16;;;;;;;6.03;1.27;;;9.00;99.90;;;;;;5029201;28;20025;-82
2021/01/29 07:39:59;;;;;;;4.25;0.80;;;9.00;99.90;;;;;;5030116;28;20372;-83
2021/01/29 07:43:06;;;;;;;6.30;1.38;;;9.10;99.90;;;;;;5029059;28;20041;-83
2021/01/29 07:45:44;;;;;;;5.78;1.10;;;9.10;99.90;;;;;;5023510;28;20030;-83
2021/01/29 07:48:46;;;;;;;9.73;1.55;;;9.00;99.90;;;;;;5028533;28;20460;-83
2021/01/29 07:51:35;;;;;;;8.02;1.48;;;9.00;99.90;;;;;;5029673;28;20434;-81
2021/01/29 07:54:31;;;;;;;6.53;1.63;;;9.00;99.90;;;;;;5028982;28;20030;-81
2021/01/29 07:57:12;;;;;;;5.05;1.00;;;9.10;99.90;;;;;;5029704;28;20049;-81
2021/01/29 08:00:07;;;;;;;6.63;1.13;;;9.10;99.90;;;;;;5028614;28;20029;-81
2021/01/29 08:03:11;;;;;;;11.63;2.50;;;9.10;99.90;;;;;;5028592;28;20041;-81
2021/01/29 08:06:01;;;;;;;7.22;1.48;;;9.00;99.90;;;;;;5028187;28;20498;-82
2021/01/29 08:08:46;;;;;;;7.53;1.30;;;9.00;99.90;;;;;;5028321;28;20025;-83
2021/01/29 08:11:14;;;;;;;5.82;1.27;;;9.10;99.90;;;;;;5029643;28;20534;-84
2021/01/29 08:14:12;;;;;;;4.70;1.40;;;9.00;99.90;;;;;;5012201;28;20068;-81
2021/01/29 08:17:06;;;;;;;6.00;1.80;;;9.00;99.90;;;;;;5025178;28;20131;-81
2021/01/29 08:19:58;;;;;;;9.18;1.65;;;9.00;99.90;;;;;;5029776;28;20025;-83
2021/01/29 08:22:57;;;;;;;4.78;1.30;;;9.00;99.90;;;;;;5020742;28;20060;-86
2021/01/29 08:25:34;;;;;;;4.97;1.88;;;9.00;99.90;;;;;;5027832;28;20044;-83
2021/01/29 08:28:17;;;;;;;9.77;2.38;;;9.10;99.90;;;;;;5027567;28;20068;-81
2021/01/29 08:31:07;;;;;;;4.88;1.80;;;9.10;99.90;;;;;;5029079;28;20109;-84
2021/01/29 08:34:27;;;;;;;8.48;2.40;;;9.10;99.90;;;;;;5029014;28;20028;-82
2021/01/29 08:37:15;;;;;;;9.30;2.05;;;9.20;99.90;;;;;;4990171;28;20558;-84
2021/01/29 08:40:22;;;;;;;10.05;2.30;;;9.20;99.90;;;;;;5027707;28;20105;-85
2021/01/29 08:43:17;;;;;;;8.38;3.00;;;9.20;99.90;;;;;;5028295;28;20033;-66
2021/01/29 08:46:05;;;;;;;8.88;1.85;;;9.30;99.90;;;;;;5027517;28;20057;-83
2021/01/29 08:48:43;;;;;;;7.72;2.13;;;9.40;99.90;;;;;;5027228;28;20025;-84
2021/01/29 08:51:37;;;;;;;11.55;1.75;;;9.40;99.90;;;;;;5027227;28;20041;-84
2021/01/29 08:54:33;;;;;;;11.18;2.42;;;9.50;99.90;;;;;;5027434;28;20030;-84
2021/01/29 08:57:16;;;;;;;12.75;1.85;;;9.60;99.90;;;;;;5023293;28;20120;-83
2021/01/29 08:59:42;;;;;;;9.23;2.22;;;9.60;99.90;;;;;;5026909;28;20112;-85
2021/01/29 09:02:20;;;;;;;10.20;1.95;;;9.70;99.90;;;;;;5028342;28;20383;-83
2021/01/29 09:04:49;;;;;;;10.55;2.15;;;9.80;99.90;;;;;;5026979;28;20476;-81
2021/01/29 09:07:27;;;;;;;6.70;1.17;;;9.80;99.90;;;;;;5027043;28;20029;-83
2021/01/29 09:10:04;;;;;;;14.32;2.38;;;9.90;99.90;;;;;;5026596;28;20044;-80
2021/01/29 09:12:32;;;;;;;15.40;1.73;;;9.90;99.90;;;;;;5028604;28;20483;-85
2021/01/29 09:15:24;;;;;;;13.35;2.40;;;9.90;99.90;;;;;;5028201;28;20460;-83
2021/01/29 09:18:01;;;;;;;16.15;2.15;;;10.00;99.90;;;;;;5025153;28;20037;-82
2021/01/29 09:20:32;;;;;;;17.70;2.15;;;10.00;99.90;;;;;;5026801;28;20472;-82
2021/01/29 09:23:06;;;;;;;9.45;1.60;;;10.00;99.90;;;;;;5027916;28;20120;-83
2021/01/29 09:25:58;;;;;;;12.35;2.20;;;10.10;99.90;;;;;;5027229;28;20052;-80
2021/01/29 09:28:45;;;;;;;10.45;1.92;;;10.10;99.90;;;;;;5026715;28;20121;-81
2021/01/29 09:31:25;;;;;;;12.73;1.75;;;10.20;99.90;;;;;;5028022;28;20104;-84
2021/01/29 09:33:56;;;;;;;8.75;1.58;;;10.20;99.90;;;;;;5026284;28;20025;-80
2021/01/29 09:36:47;;;;;;;12.13;1.85;;;10.20;99.90;;;;;;5026037;28;20181;-83
2021/01/29 09:39:28;;;;;;;10.80;1.95;;;10.30;99.90;;;;;;5027258;28;20037;-80
2021/01/29 09:42:11;;;;;;;11.10;1.35;;;10.30;99.90;;;;;;5026364;28;20024;-79
2021/01/29 09:44:40;;;;;;;13.52;2.42;;;10.40;99.90;;;;;;5027987;28;20029;-84
2021/01/29 09:47:07;;;;;;;13.63;2.17;;;10.40;99.90;;;;;;5026511;28;20086;-81
2021/01/29 09:49:36;;;;;;;10.73;1.85;;;10.50;99.90;;;;;;5026574;28;20037;-81
2021/01/29 09:52:11;;;;;;;12.05;1.83;;;10.50;99.90;;;;;;5026723;28;20021;-82
2021/01/29 09:54:51;;;;;;;12.80;2.20;;;10.50;99.90;;;;;;5026476;28;20041;-82
2021/01/29 09:57:28;;;;;;;;;;;10.50;99.90;;;;;;5026833;28;20030;-82
2021/01/29 10:00:16;;;;;;;14.95;3.08;;;10.60;99.90;;;;;;5027964;28;19905;-83
2021/01/29 10:02:58;;;;;;;19.08;2.55;;;10.60;99.90;;;;;;5026671;28;20155;-83
2021/01/29 10:05:24;;;;;;;12.82;2.70;;;10.60;99.90;;;;;;5025897;28;20033;-79
2021/01/29 10:08:10;;;;;;;13.45;2.03;;;10.60;99.90;;;;;;5026077;28;20028;-81
2021/01/29 10:10:58;;;;;;;12.60;2.13;;;10.60;99.90;;;;;;5027504;28;20030;-82
2021/01/29 10:13:36;;;;;;;15.23;2.10;;;10.60;99.90;;;;;;5025907;28;20124;-82
2021/01/29 10:16:23;;;;;;;12.27;2.20;;;10.60;99.90;;;;;;5026011;28;20566;-81
2021/01/29 10:18:59;;;;;;;16.90;2.17;;;10.60;99.90;;;;;;5029070;28;20044;-81
2021/01/29 10:21:41;;;;;;;18.05;2.17;;;10.60;99.90;;;;;;5030399;28;20052;-79
2021/01/29 10:24:13;;;;;;;12.20;2.22;;;10.60;99.90;;;;;;5031850;28;20029;-82
2021/01/29 10:26:47;;;;;;;14.23;2.95;;;10.60;99.90;;;;;;5030171;28;20400;-79
2021/01/29 10:29:25;;;;;;;19.75;3.67;;;10.60;99.90;;;;;;5030167;28;20055;-79
2021/01/29 10:32:05;;;;;;;12.88;2.47;;;10.60;99.90;;;;;;5013959;28;20037;-80
2021/01/29 10:34:48;;;;;;;9.95;2.55;;;10.60;99.90;;;;;;5029883;28;20022;-80
2021/01/29 10:37:23;;;;;;;12.70;2.25;;;10.60;99.90;;;;;;5029216;28;20056;-81
2021/01/29 10:40:14;;;;;;;14.52;2.58;;;10.60;99.90;;;;;;5030837;28;20026;-80
2021/01/29 10:42:46;;;;;;;15.90;2.17;;;10.60;99.90;;;;;;5029414;28;20026;-79
2021/01/29 10:45:20;;;;;;;14.98;2.85;;;10.70;99.90;;;;;;5031018;28;20025;-79
2021/01/29 10:48:29;;;;;;;17.15;3.15;;;10.70;99.90;;;;;;5030968;28;20491;-82
2021/01/29 10:51:04;;;;;;;13.52;2.35;;;10.70;99.90;;;;;;4990153;28;20042;-79
2021/01/29 10:53:32;;;;;;;11.35;2.38;;;10.70;99.90;;;;;;5029440;28;20025;-82
2021/01/29 10:56:03;;;;;;;5.90;1.55;;;10.70;99.90;;;;;;5030622;28;20031;-80
2021/01/29 10:58:38;;;;;;;16.63;2.30;;;10.70;99.90;;;;;;5030734;28;20493;-81
2021/01/29 11:01:30;;;;;;;8.65;1.95;;;10.80;99.90;;;;;;5029298;28;20022;-80
2021/01/29 11:04:04;;;;;;;10.32;2.40;;;10.80;99.90;;;;;;5029153;28;20033;-81
2021/01/29 11:06:50;;;;;;;16.98;2.17;;;10.90;99.90;;;;;;5030149;28;20025;-79
2021/01/29 11:09:41;;;;;;;10.90;2.58;;;10.90;99.90;;;;;;5029640;28;20072;-81
2021/01/29 11:12:38;;;;;;;12.45;2.05;;;11.00;99.90;;;;;;5028518;28;20048;-80
2021/01/29 11:15:18;;;;;;;12.98;3.63;;;11.10;99.90;;;;;;5029998;28;20025;-81
2021/01/29 11:17:58;;;;;;;13.90;2.40;;;11.10;99.90;;;;;;5030682;28;20105;-82
2021/01/29 11:20:30;;;;;;;8.45;2.20;;;11.10;99.90;;;;;;5028834;28;20385;-81
2021/01/29 11:23:20;;;;;;;8.38;3.47;;;11.20;99.90;;;;;;5028201;28;20219;-81
2021/01/29 11:26:10;;;;;;;12.18;2.28;;;11.10;99.90;;;;;;5028697;28;20068;-82
2021/01/29 11:28:43;;;;;;;9.50;2.55;;;11.10;99.90;;;;;;5027198;28;20025;-81
2021/01/29 11:31:32;;;;;;;7.60;1.77;;;11.20;99.90;;;;;;5030140;28;20025;-80
2021/01/29 11:34:01;;;;;;;12.68;1.70;;;11.20;99.90;;;;;;5019358;28;20038;-79
2021/01/29 11:36:42;;;;;;;13.60;1.80;;;11.20;99.90;;;;;;5029953;28;20029;-79
2021/01/29 11:39:45;;;;;;;12.18;1.90;;;11.20;99.90;;;;;;5028235;28;20180;-80
2021/01/29 11:42:35;;;;;;;6.45;1.40;;;11.30;99.90;;;;;;5028323;28;20029;-80
2021/01/29 11:45:11;;;;;;;5.80;1.35;;;11.40;99.90;;;;;;5029604;28;20040;-69
2021/01/29 11:47:48;;;;;;;8.82;1.70;;;11.50;99.90;;;;;;5028084;28;20036;-80
2021/01/29 11:50:39;;;;;;;9.68;1.88;;;11.60;99.90;;;;;;5027999;28;20026;-80
2021/01/29 11:53:18;;;;;;;11.48;1.90;;;11.70;99.90;;;;;;5028209;28;20121;-80
2021/01/29 11:55:47;;;;;;;10.40;1.95;;;12.40;99.90;;;;;;5029601;28;20532;-80
2021/01/29 11:58:16;;;;;;;;;;;13.00;99.90;;;;;;5029537;28;20030;-80
2021/01/29 12:00:59;;;;;;;12.50;1.77;;;13.80;99.90;;;;;;5027535;28;19901;-82
2021/01/29 12:04:13;;;;;;;8.02;3.38;;;14.60;99.90;;;;;;5029079;28;20087;-81
2021/01/29 12:06:48;;;;;;;11.05;3.38;;;15.00;99.90;;;;;;5009710;28;20038;-81
2021/01/29 12:09:48;;;;;;;7.35;1.63;;;14.80;99.90;;;;;;5027354;28;20021;-80
2021/01/29 12:12:43;;;;;;;6.10;1.23;;;14.30;99.70;;;;;;5019769;28;20038;-80
2021/01/29 12:15:14;;;;;;;6.88;1.15;;;14.40;99.90;;;;;;5027002;28;20078;-81
2021/01/29 12:17:48;;;;;;;7.22;1.85;;;14.40;99.90;;;;;;5028321;28;20017;-78
2021/01/29 12:20:22;;;;;;;7.63;1.17;;;14.20;99.80;;;;;;5027094;28;20021;-80
2021/01/29 12:23:08;;;;;;;7.47;1.42;;;14.30;99.90;;;;;;5028311;28;20456;-84
2021/01/29 12:25:51;;;;;;;6.35;1.40;;;14.60;99.90;;;;;;5027120;28;20064;-83
2021/01/29 12:28:33;;;;;;;11.40;2.38;;;14.80;99.50;;;;;;5028673;28;20034;-80
2021/01/29 12:31:33;;;;;;;5.70;1.98;;;14.60;98.90;;;;;;5028689;28;20025;-82
2021/01/29 12:34:17;;;;;;;8.43;1.73;;;14.30;98.80;;;;;;5028583;28;20030;-79
2021/01/29 12:36:58;;;;;;;7.25;1.42;;;13.90;98.90;;;;;;5028713;28;20034;-81
2021/01/29 12:39:35;;;;;;;6.93;1.33;;;13.60;99.10;;;;;;5027246;28;20029;-83
2021/01/29 12:42:01;;;;;;;9.02;1.83;;;13.40;99.40;;;;;;5026743;28;20493;-81
2021/01/29 12:44:34;;;;;;;8.25;1.63;;;13.40;99.90;;;;;;5027061;28;20057;-81
2021/01/29 12:47:20;;;;;;;7.43;1.80;;;13.40;99.90;;;;;;5027720;28;20472;-82
2021/01/29 12:50:06;;;;;;;8.45;2.35;;;13.30;99.70;;;;;;5028668;28;20069;-82
2021/01/29 12:52:39;;;;;;;11.00;2.13;;;13.20;99.70;;;;;;5028362;28;20033;-80
2021/01/29 12:55:24;;;;;;;5.28;1.23;;;13.20;99.60;;;;;;5027866;28;20025;-80
2021/01/29 12:58:09;;;;;;;11.18;2.47;;;13.00;99.60;;;;;;5027162;28;20021;-83
2021/01/29 13:00:40;;;;;;;5.15;1.92;;;12.90;99.60;;;;;;5026619;28;20100;-83
2021/01/29 13:03:54;;;;;;;6.40;2.50;;;12.80;99.80;;;;;;5009853;28;20022;-82
2021/01/29 13:06:51;;;;;;;7.82;2.83;;;12.70;99.90;;;;;;4989272;28;20042;-83
2021/01/29 13:09:42;;;;;;;11.35;3.67;;;12.60;99.90;;;;;;4988854;28;20026;-81
2021/01/29 13:12:28;;;;;;;10.70;2.33;;;12.60;99.90;;;;;;5023929;28;20029;-82
2021/01/29 13:15:01;;;;;;;15.00;2.97;;;12.60;99.90;;;;;;5028139;28;20444;-81
2021/01/29 13:17:40;;;;;;;6.63;2.78;;;12.60;99.90;;;;;;5025813;28;20022;-80
2021/01/29 13:20:22;;;;;;;7.30;3.13;;;12.50;99.90;;;;;;5027116;28;20017;-82
2021/01/29 13:22:56;;;;;;;10.45;4.57;;;12.50;99.90;;;;;;5027019;28;20053;-82
2021/01/29 13:25:27;;;;;;;8.05;2.15;;;12.40;99.90;;;;;;5026605;28;20075;-82
2021/01/29 13:28:15;;;;;;;8.65;3.28;;;12.40;99.90;;;;;;5025964;28;20037;-83
2021/01/29 13:30:43;;;;;;;4.22;1.67;;;12.30;99.90;;;;;;5027503;28;20029;-83
2021/01/29 13:33:18;;;;;;;4.53;1.13;;;12.30;99.90;;;;;;5026228;28;20025;-83
2021/01/29 13:35:46;;;;;;;8.68;1.33;;;12.30;99.90;;;;;;5026160;28;20388;-82
2021/01/29 13:38:23;;;;;;;8.03;1.23;;;12.30;99.90;;;;;;5027081;28;20056;-81
2021/01/29 13:40:50;;;;;;;5.25;1.73;;;12.40;99.90;;;;;;5026542;28;20091;-79
2021/01/29 13:43:26;;;;;;;5.65;1.08;;;12.60;99.90;;;;;;5027371;28;20033;-83
2021/01/29 13:45:56;;;;;;;9.07;2.08;;;12.70;99.90;;;;;;5027477;28;20452;-80
2021/01/29 13:48:23;;;;;;;6.30;1.80;;;12.70;99.90;;;;;;5027047;28;20029;-81
2021/01/29 13:50:50;;;;;;;7.28;1.88;;;12.70;99.90;;;;;;5025690;28;20133;-80
2021/01/29 13:53:28;;;;;;;9.65;1.38;;;12.80;99.90;;;;;;5026063;28;20033;-80
2021/01/29 13:55:57;;;;;;;8.18;2.35;;;12.70;99.90;;;;;;5027218;28;20370;-80